Hinton, Virginia
Current Conditions -  °F | °C
As of 4:35 PM on Friday 28 Nov 2014 (Local Time) from KVBW Reporting Station
Scattered Clouds Scattered Clouds  
Wind Chill: -2°   Ceiling: Unl
Heat Index:   Visibility: 10mi
Dew Point: -8°   Wind: 5mph
Humidity: 53%   Direction: 250°WSW
Pressure: 30.24"   Gusts: NA
Location:  38.47°N, 78.97°W
Report Text: KVBW 282135Z AUTO 25004KT 10SM SCT095 01/M08 A3024 RMK AO2 T00051081
Loading
Personal Weather Stations






























Interactive Weather Map New forecast layout! Learn more

10-Day Weather Forecast

Advertisements
Track Severe Weather on mobile